createdAt,value
2019-04-10T00:01:55.303Z,101619.36
2019-04-10T00:04:23.831Z,101605.95
2019-04-10T00:06:52.291Z,101605.69
2019-04-10T00:09:21.035Z,101609.95
2019-04-10T00:11:49.559Z,101607.27
2019-04-10T00:14:18.560Z,101604.11
2019-04-10T00:16:47.099Z,101599.37
2019-04-10T00:19:15.543Z,101602.34
2019-04-10T00:21:43.960Z,101607.64
2019-04-10T00:24:13.475Z,101613.13
2019-04-10T00:26:41.969Z,101615.28
2019-04-10T00:29:10.412Z,101616.74
2019-04-10T00:31:38.833Z,101612.97
2019-04-10T00:34:07.458Z,101620.64
2019-04-10T00:36:35.850Z,101616.83
2019-04-10T00:39:06.484Z,101614.84
2019-04-10T00:41:34.898Z,101619.36
2019-04-10T00:44:03.589Z,101622.89
2019-04-10T00:46:32.538Z,101619.14
2019-04-10T00:49:01.063Z,101628.03
2019-04-10T00:51:29.471Z,101621.70
2019-04-10T00:53:57.893Z,101620.06
2019-04-10T00:56:26.379Z,101618.05
2019-04-10T00:58:55.440Z,101614.59
2019-04-10T01:01:23.984Z,101609.34
2019-04-10T01:03:52.413Z,101613.23
2019-04-10T01:06:21.970Z,101611.03
2019-04-10T01:08:51.043Z,101613.78
2019-04-10T01:11:19.661Z,101609.84
2019-04-10T01:13:48.151Z,101606.48
2019-04-10T01:16:17.814Z,101610.17
2019-04-10T01:18:47.728Z,101610.47
2019-04-10T01:21:16.310Z,101610.88
2019-04-10T01:23:44.989Z,101608.77
2019-04-10T01:26:13.547Z,101611.30
2019-04-10T01:28:41.962Z,101624.18
2019-04-10T01:31:10.849Z,101620.95
2019-04-10T01:33:39.405Z,101626.97
2019-04-10T01:36:08.870Z,101628.78
2019-04-10T01:38:37.802Z,101629.59
2019-04-10T01:41:06.372Z,101630.29
2019-04-10T01:43:35.143Z,101635.00
2019-04-10T01:46:04.187Z,101633.30
2019-04-10T01:48:32.934Z,101633.02
2019-04-10T01:51:01.523Z,101639.06
2019-04-10T01:53:30.070Z,101634.11
2019-04-10T01:55:59.592Z,101640.77
2019-04-10T01:58:28.058Z,101634.76
2019-04-10T02:01:01.828Z,101634.40
2019-04-10T02:03:30.425Z,101629.61
2019-04-10T02:05:58.894Z,101631.07
2019-04-10T02:08:27.309Z,101624.01
2019-04-10T02:10:56.555Z,101616.05
2019-04-10T02:13:25.458Z,101626.16
2019-04-10T02:15:54.477Z,101632.28
2019-04-10T02:18:23.495Z,101627.23
2019-04-10T02:20:52.070Z,101624.38
2019-04-10T02:23:20.738Z,101628.67
2019-04-10T02:25:49.441Z,101622.45
2019-04-10T02:28:18.588Z,101625.02
2019-04-10T02:30:47.906Z,101622.83
2019-04-10T02:33:17.662Z,101627.30
2019-04-10T02:35:47.663Z,101629.48
2019-04-10T02:38:35.991Z,101636.09
2019-04-10T02:40:47.506Z,101636.61
2019-04-10T02:43:16.361Z,101635.98
2019-04-10T02:45:44.929Z,101634.19
2019-04-10T02:48:14.884Z,101636.13
2019-04-10T02:50:44.778Z,101637.44
2019-04-10T02:53:15.139Z,101637.69
2019-04-10T02:55:43.616Z,101637.13
2019-04-10T02:58:12.152Z,101632.34
2019-04-10T03:00:42.120Z,101633.68
2019-04-10T03:03:12.025Z,101639.54
2019-04-10T03:05:40.816Z,101630.75
2019-04-10T03:08:11.025Z,101637.89
2019-04-10T03:10:47.461Z,101633.77
2019-04-10T03:13:11.457Z,101632.45
2019-04-10T03:15:40.897Z,101635.55
2019-04-10T03:18:09.538Z,101631.55
2019-04-10T03:20:38.493Z,101632.37
2019-04-10T03:23:07.349Z,101632.31
2019-04-10T03:25:35.863Z,101633.36
2019-04-10T03:28:05.087Z,101634.64
2019-04-10T03:30:34.697Z,101634.23
2019-04-10T03:33:12.400Z,101635.59
2019-04-10T03:35:40.928Z,101627.80
2019-04-10T03:38:09.883Z,101637.42
2019-04-10T03:40:38.343Z,101630.03
2019-04-10T03:43:07.676Z,101628.81
2019-04-10T03:45:36.960Z,101628.64
2019-04-10T03:48:06.423Z,101629.92
2019-04-10T03:50:36.121Z,101626.70
2019-04-10T03:53:05.519Z,101629.78
2019-04-10T03:55:34.873Z,101629.61
2019-04-10T03:58:03.412Z,101638.50
2019-04-10T04:00:31.847Z,101634.36
2019-04-10T04:03:00.305Z,101629.30
2019-04-10T04:05:28.896Z,101634.91
2019-04-10T04:07:57.300Z,101631.09
2019-04-10T04:10:26.743Z,101631.64
2019-04-10T04:12:55.355Z,101629.38
2019-04-10T04:15:24.048Z,101633.45
2019-04-10T04:17:52.676Z,101638.90
2019-04-10T04:20:21.200Z,101643.95
2019-04-10T04:22:49.612Z,101640.84
2019-04-10T04:25:18.066Z,101646.86
2019-04-10T04:27:46.488Z,101646.30
2019-04-10T04:32:38.223Z,101641.62
2019-04-10T04:35:07.006Z,101645.27
2019-04-10T04:37:35.797Z,101646.78
2019-04-10T04:40:06.028Z,101650.59
2019-04-10T04:42:35.138Z,101653.28
2019-04-10T04:45:03.805Z,101658.99
2019-04-10T04:47:33.114Z,101661.66
2019-04-10T04:50:01.965Z,101660.06
2019-04-10T04:52:30.449Z,101666.55
2019-04-10T04:54:58.906Z,101661.18
2019-04-10T04:57:27.317Z,101665.59
2019-04-10T04:59:56.841Z,101666.64
2019-04-10T05:02:26.215Z,101663.59
2019-04-10T05:04:54.762Z,101662.61
2019-04-10T05:07:23.212Z,101668.92
2019-04-10T05:09:52.483Z,101661.50
2019-04-10T05:12:21.045Z,101660.29
2019-04-10T05:14:49.471Z,101659.66
2019-04-10T05:17:18.334Z,101657.03
2019-04-10T05:19:46.940Z,101660.80
2019-04-10T05:22:15.352Z,101655.02
2019-04-10T05:24:44.637Z,101655.11
2019-04-10T05:27:14.120Z,101658.09
2019-04-10T05:29:43.015Z,101660.67
2019-04-10T05:32:11.582Z,101661.42
2019-04-10T05:34:40.430Z,101654.34
2019-04-10T05:37:09.439Z,101660.56
2019-04-10T05:39:43.118Z,101660.56
2019-04-10T05:42:08.490Z,101663.05
2019-04-10T05:44:38.158Z,101662.66
2019-04-10T05:47:07.378Z,101662.66
2019-04-10T05:49:35.945Z,101656.67
2019-04-10T05:52:04.460Z,101661.13
2019-04-10T05:54:33.337Z,101669.19
2019-04-10T05:57:01.866Z,101670.97
2019-04-10T05:59:30.272Z,101660.77
2019-04-10T06:01:58.985Z,101660.77
2019-04-10T06:04:27.516Z,101677.63
2019-04-10T06:06:56.859Z,101674.78
2019-04-10T06:09:25.428Z,101673.45
2019-04-10T06:11:53.852Z,101668.53
2019-04-10T06:14:22.277Z,101668.53
2019-04-10T06:16:51.039Z,101673.27
2019-04-10T06:19:19.961Z,101672.53
2019-04-10T06:21:48.478Z,101671.41
2019-04-10T06:24:18.024Z,101675.28
2019-04-10T06:26:47.827Z,101672.48
2019-04-10T06:29:17.108Z,101672.79
2019-04-10T06:31:45.710Z,101677.00
2019-04-10T06:34:16.153Z,101683.56
2019-04-10T06:36:44.333Z,101683.56
2019-04-10T06:39:12.968Z,101685.14
2019-04-10T06:41:41.571Z,101682.02
2019-04-10T06:44:09.981Z,101685.77
2019-04-10T06:46:39.392Z,101684.64
2019-04-10T06:49:09.271Z,101690.27
2019-04-10T06:51:37.880Z,101682.49
2019-04-10T06:54:09.919Z,101687.69
2019-04-10T06:56:37.500Z,101687.69
2019-04-10T06:59:06.660Z,101687.61
2019-04-10T07:01:46.010Z,101687.55
2019-04-10T07:04:08.027Z,101694.94
2019-04-10T07:06:49.995Z,101693.81
2019-04-10T07:09:09.572Z,101681.44
2019-04-10T07:11:38.614Z,101686.16
2019-04-10T07:14:10.335Z,101686.16
2019-04-10T07:16:37.459Z,101692.56
2019-04-10T07:19:09.816Z,101692.56
2019-04-10T07:21:37.575Z,101691.29
2019-04-10T07:24:08.337Z,101682.67
2019-04-10T07:26:41.695Z,101685.73
2019-04-10T07:29:06.765Z,101685.73
2019-04-10T07:31:36.725Z,101689.06
2019-04-10T07:34:05.399Z,101689.06
2019-04-10T07:36:34.862Z,101693.53
2019-04-10T07:39:04.068Z,101689.92
2019-04-10T07:41:33.407Z,101689.92
2019-04-10T07:44:01.985Z,101700.88
2019-04-10T07:46:31.228Z,101699.19
2019-04-10T07:49:00.693Z,101695.91
2019-04-10T07:51:29.835Z,101684.94
2019-04-10T07:53:58.395Z,101684.94
2019-04-10T07:56:26.842Z,101696.71
2019-04-10T07:58:55.967Z,101695.62
2019-04-10T08:01:24.435Z,101692.30
2019-04-10T08:03:53.928Z,101691.86
2019-04-10T08:06:23.505Z,101691.13
2019-04-10T08:08:52.114Z,101693.33
2019-04-10T08:11:21.894Z,101690.61
2019-04-10T08:13:51.195Z,101692.78
2019-04-10T08:16:19.761Z,101696.77
2019-04-10T08:18:48.197Z,101695.72
2019-04-10T08:21:17.662Z,101692.72
2019-04-10T08:23:46.546Z,101698.34
2019-04-10T08:26:16.224Z,101691.76
2019-04-10T08:28:45.413Z,101692.98
2019-04-10T08:31:14.910Z,101691.12
2019-04-10T08:33:44.069Z,101704.70
2019-04-10T08:36:12.994Z,101696.55
2019-04-10T08:38:42.133Z,101686.53
2019-04-10T08:41:10.797Z,101692.19
2019-04-10T08:43:39.689Z,101691.88
2019-04-10T08:46:08.726Z,101692.21
2019-04-10T08:48:37.158Z,101692.39
2019-04-10T08:51:06.596Z,101693.06
2019-04-10T08:53:36.107Z,101694.27
2019-04-10T08:56:04.871Z,101700.83
2019-04-10T08:58:33.284Z,101701.27
2019-04-10T09:01:01.790Z,101703.31
2019-04-10T09:03:30.947Z,101699.14
2019-04-10T09:06:00.841Z,101697.41
2019-04-10T09:08:29.406Z,101700.18
2019-04-10T09:10:58.776Z,101695.94
2019-04-10T09:13:28.401Z,101693.23
2019-04-10T09:15:56.943Z,101693.90
2019-04-10T09:18:25.351Z,101693.67
2019-04-10T09:20:53.785Z,101694.41
2019-04-10T09:23:30.727Z,101697.20
2019-04-10T09:25:52.356Z,101689.20
2019-04-10T09:28:20.766Z,101695.16
2019-04-10T09:30:49.208Z,101692.33
2019-04-10T09:33:24.306Z,101690.11
2019-04-10T09:35:48.787Z,101692.64
2019-04-10T09:38:17.367Z,101694.92
2019-04-10T09:40:46.725Z,101691.50
2019-04-10T09:43:15.724Z,101691.19
2019-04-10T09:45:44.219Z,101693.04
2019-04-10T09:48:12.822Z,101685.72
2019-04-10T09:50:41.807Z,101696.61
2019-04-10T09:53:10.788Z,101695.63
2019-04-10T09:55:40.287Z,101692.82
2019-04-10T09:58:09.004Z,101695.82
2019-04-10T10:00:38.195Z,101695.75
2019-04-10T10:03:07.676Z,101700.43
2019-04-10T10:05:36.920Z,101704.49
2019-04-10T10:08:06.466Z,101701.13
2019-04-10T10:10:37.242Z,101699.79
2019-04-10T10:13:05.814Z,101691.13
2019-04-10T10:15:34.215Z,101690.31
2019-04-10T10:18:03.393Z,101690.63
2019-04-10T10:20:32.112Z,101688.39
2019-04-10T10:23:01.297Z,101690.52
2019-04-10T10:25:30.979Z,101688.44
2019-04-10T10:27:59.654Z,101700.02
2019-04-10T10:30:28.221Z,101694.41
2019-04-10T10:32:57.274Z,101689.25
2019-04-10T10:35:25.824Z,101689.11
2019-04-10T10:37:54.730Z,101688.44
2019-04-10T10:40:23.482Z,101684.36
2019-04-10T10:42:52.125Z,101683.87
2019-04-10T10:45:20.812Z,101680.05
2019-04-10T10:47:50.534Z,101684.59
2019-04-10T10:50:19.321Z,101683.78
2019-04-10T10:52:48.009Z,101675.53
2019-04-10T10:55:17.756Z,101684.37
2019-04-10T10:57:47.062Z,101672.30
2019-04-10T11:00:17.069Z,101671.25
2019-04-10T11:02:45.655Z,101672.61
2019-04-10T11:05:14.163Z,101677.48
2019-04-10T11:07:42.934Z,101678.38
2019-04-10T11:10:12.550Z,101670.49
2019-04-10T11:12:42.258Z,101670.23
2019-04-10T11:15:12.338Z,101675.53
2019-04-10T11:17:41.864Z,101668.02
2019-04-10T11:20:12.614Z,101665.58
2019-04-10T11:22:42.335Z,101667.29
2019-04-10T11:25:12.125Z,101668.87
2019-04-10T11:27:42.010Z,101664.55
2019-04-10T11:30:12.535Z,101673.08
2019-04-10T11:32:42.261Z,101668.22
2019-04-10T11:35:11.206Z,101672.73
2019-04-10T11:37:44.426Z,101669.55
2019-04-10T11:40:12.189Z,101669.83
2019-04-10T11:42:40.325Z,101675.52
2019-04-10T11:45:10.615Z,101675.05
2019-04-10T11:47:39.543Z,101663.59
2019-04-10T11:50:13.525Z,101669.12
2019-04-10T11:52:44.755Z,101662.56
2019-04-10T11:57:41.936Z,101653.41
2019-04-10T12:02:43.853Z,101659.69
2019-04-10T12:05:14.769Z,101669.20
2019-04-10T12:08:09.461Z,101674.00
2019-04-10T12:12:41.694Z,101664.23
2019-04-10T12:15:10.316Z,101668.14
2019-04-10T12:17:38.717Z,101670.91
2019-04-10T12:20:07.527Z,101671.36
2019-04-10T12:22:35.939Z,101665.16
2019-04-10T12:25:06.848Z,101659.98
2019-04-10T12:27:35.418Z,101661.81
2019-04-10T12:30:06.863Z,101662.41
2019-04-10T12:32:35.418Z,101666.31
2019-04-10T12:35:05.398Z,101665.98
2019-04-10T12:37:34.965Z,101667.17
2019-04-10T12:40:05.493Z,101665.97
2019-04-10T12:42:34.576Z,101670.47
2019-04-10T12:45:04.663Z,101670.60
2019-04-10T12:47:34.243Z,101677.33
2019-04-10T12:50:03.768Z,101669.64
2019-04-10T12:52:32.447Z,101671.48
2019-04-10T12:55:01.937Z,101678.55
2019-04-10T12:57:30.768Z,101682.22
2019-04-10T13:00:03.685Z,101673.95
2019-04-10T13:02:30.306Z,101674.11
2019-04-10T13:04:58.819Z,101676.58
2019-04-10T13:07:27.601Z,101666.22
2019-04-10T13:09:56.111Z,101669.09
2019-04-10T13:12:25.027Z,101666.89
2019-04-10T13:14:53.641Z,101654.84
2019-04-10T13:17:22.677Z,101647.28
2019-04-10T13:19:51.477Z,101643.60
2019-04-10T13:22:20.139Z,101644.31
2019-04-10T13:24:48.748Z,101653.94
2019-04-10T13:27:17.257Z,101660.26
2019-04-10T13:29:46.642Z,101660.97
2019-04-10T13:32:16.740Z,101658.50
2019-04-10T13:34:45.777Z,101664.99
2019-04-10T13:37:14.203Z,101665.16
2019-04-10T13:39:43.348Z,101665.19
2019-04-10T13:42:12.737Z,101665.71
2019-04-10T13:44:42.449Z,101666.69
2019-04-10T13:47:11.292Z,101660.04
2019-04-10T13:49:39.670Z,101672.15
2019-04-10T13:52:08.110Z,101663.83
2019-04-10T13:54:36.837Z,101670.35
2019-04-10T13:57:05.769Z,101670.75
2019-04-10T13:59:35.202Z,101667.33
2019-04-10T14:02:05.191Z,101665.52
2019-04-10T14:04:33.597Z,101678.18
2019-04-10T14:07:02.087Z,101673.25
2019-04-10T14:09:42.681Z,101677.94
2019-04-10T14:12:01.776Z,101666.66
2019-04-10T14:14:30.923Z,101672.14
2019-04-10T14:16:59.548Z,101677.80
2019-04-10T14:19:29.865Z,101672.44
2019-04-10T14:21:58.332Z,101677.69
2019-04-10T14:24:38.312Z,101669.17
2019-04-10T14:27:01.274Z,101668.22
2019-04-10T14:29:30.180Z,101669.78
2019-04-10T14:32:03.257Z,101662.50
2019-04-10T14:34:31.690Z,101678.09
2019-04-10T14:37:01.144Z,101674.89
2019-04-10T14:39:29.692Z,101677.61
2019-04-10T14:41:58.108Z,101681.44
2019-04-10T14:44:26.612Z,101683.94
2019-04-10T14:46:55.024Z,101686.69
2019-04-10T14:49:23.531Z,101691.66
2019-04-10T14:51:52.677Z,101684.02
2019-04-10T14:54:21.737Z,101685.90
2019-04-10T14:56:50.539Z,101695.47
2019-04-10T14:59:19.821Z,101691.50
2019-04-10T15:01:48.404Z,101696.11
2019-04-10T15:04:17.300Z,101696.38
2019-04-10T15:06:45.929Z,101692.55
2019-04-10T15:09:22.170Z,101693.77
2019-04-10T15:11:47.433Z,101693.61
2019-04-10T15:14:15.941Z,101690.77
2019-04-10T15:16:53.028Z,101695.05
2019-04-10T15:19:14.650Z,101707.05
2019-04-10T15:21:43.112Z,101705.38
2019-04-10T15:24:11.664Z,101701.17
2019-04-10T15:26:40.392Z,101705.30
2019-04-10T15:29:08.973Z,101718.25
2019-04-10T15:31:37.569Z,101713.80
2019-04-10T15:34:06.136Z,101714.16
2019-04-10T15:36:34.547Z,101721.14
2019-04-10T15:39:04.118Z,101728.81
2019-04-10T15:41:32.974Z,101721.77
2019-04-10T15:44:01.571Z,101717.53
2019-04-10T15:46:30.047Z,101714.58
2019-04-10T15:48:58.522Z,101712.59
2019-04-10T15:51:27.981Z,101713.58
2019-04-10T15:53:57.069Z,101722.20
2019-04-10T15:56:25.785Z,101728.46
2019-04-10T15:58:54.172Z,101725.13
2019-04-10T16:01:23.756Z,101725.52
2019-04-10T16:03:52.746Z,101735.46
2019-04-10T16:06:21.481Z,101740.89
2019-04-10T16:08:50.390Z,101741.59
2019-04-10T16:11:21.599Z,101740.89
2019-04-10T16:13:52.674Z,101742.77
2019-04-10T16:16:32.119Z,101740.17
2019-04-10T16:19:02.348Z,101739.98
2019-04-10T16:21:31.876Z,101743.02
2019-04-10T16:24:04.857Z,101744.06
2019-04-10T16:26:33.592Z,101742.88
2019-04-10T16:29:02.118Z,101740.49
2019-04-10T16:31:30.513Z,101745.42
2019-04-10T16:33:58.929Z,101744.95
2019-04-10T16:36:27.908Z,101747.63
2019-04-10T16:38:57.397Z,101748.14
2019-04-10T16:41:28.129Z,101746.40
2019-04-10T16:43:57.095Z,101746.36
2019-04-10T16:46:25.684Z,101749.52
2019-04-10T16:48:54.090Z,101749.80
2019-04-10T16:51:22.529Z,101757.09
2019-04-10T16:53:51.776Z,101763.56
2019-04-10T16:56:21.221Z,101760.67
2019-04-10T16:58:49.986Z,101762.05
2019-04-10T17:01:18.374Z,101766.30
2019-04-10T17:03:46.881Z,101765.08
2019-04-10T17:06:15.290Z,101762.36
2019-04-10T17:08:43.969Z,101760.48
2019-04-10T17:11:12.688Z,101772.37
2019-04-10T17:13:41.099Z,101770.66
2019-04-10T17:16:09.575Z,101770.13
2019-04-10T17:18:39.178Z,101773.14
2019-04-10T17:21:08.714Z,101777.01
2019-04-10T17:23:37.573Z,101777.97
2019-04-10T17:26:06.618Z,101777.44
2019-04-10T17:28:35.126Z,101784.92
2019-04-10T17:31:05.015Z,101780.31
2019-04-10T17:33:34.131Z,101781.78
2019-04-10T17:36:02.608Z,101787.56
2019-04-10T17:38:31.040Z,101789.68
2019-04-10T17:41:02.383Z,101789.66
2019-04-10T17:43:29.950Z,101793.53
2019-04-10T17:45:58.688Z,101795.00
2019-04-10T17:48:28.249Z,101797.17
2019-04-10T17:50:57.536Z,101800.53
2019-04-10T17:53:26.148Z,101797.95
2019-04-10T17:55:55.822Z,101799.72
2019-04-10T17:58:25.390Z,101805.41
2019-04-10T18:00:58.003Z,101806.69
2019-04-10T18:03:39.543Z,101807.42
2019-04-10T18:05:57.220Z,101807.28
2019-04-10T18:08:28.063Z,101812.66
2019-04-10T18:10:57.349Z,101822.98
2019-04-10T18:13:26.706Z,101819.36
2019-04-10T18:15:55.836Z,101831.08
2019-04-10T18:18:25.503Z,101835.49
2019-04-10T18:20:53.905Z,101830.88
2019-04-10T18:23:23.077Z,101831.97
2019-04-10T18:25:51.908Z,101839.70
2019-04-10T18:28:21.334Z,101842.17
2019-04-10T18:30:49.832Z,101856.36
2019-04-10T18:33:18.449Z,101853.60
2019-04-10T18:35:47.102Z,101853.60
2019-04-10T18:38:15.796Z,101859.33
2019-04-10T18:40:53.056Z,101861.23
2019-04-10T18:43:14.385Z,101870.19
2019-04-10T18:45:55.645Z,101870.19
2019-04-10T18:48:12.957Z,101866.33
2019-04-10T18:50:41.397Z,101866.80
2019-04-10T18:53:10.870Z,101869.13
2019-04-10T18:55:40.539Z,101877.44
2019-04-10T18:58:11.649Z,101885.33
2019-04-10T19:00:58.826Z,101885.33
2019-04-10T19:03:52.321Z,101891.98
2019-04-10T19:06:28.901Z,101901.36
2019-04-10T19:09:07.267Z,101896.90
2019-04-10T19:11:32.425Z,101898.85
2019-04-10T19:13:57.897Z,101900.08
2019-04-10T19:16:26.378Z,101908.77
2019-04-10T19:18:56.884Z,101908.77
2019-04-10T19:21:25.549Z,101903.77
2019-04-10T19:23:55.481Z,101897.66
2019-04-10T19:26:24.180Z,101897.66
2019-04-10T19:28:52.963Z,101908.39
2019-04-10T19:31:24.613Z,101916.23
2019-04-10T19:33:53.191Z,101919.06
2019-04-10T19:36:21.698Z,101919.80
2019-04-10T19:38:50.106Z,101919.80
2019-04-10T19:41:25.082Z,101927.98
2019-04-10T19:43:48.681Z,101929.12
2019-04-10T19:46:17.520Z,101929.12
2019-04-10T19:48:48.948Z,101928.05
2019-04-10T19:51:16.409Z,101937.26
2019-04-10T19:53:45.794Z,101937.26
2019-04-10T19:56:14.414Z,101936.33
2019-04-10T19:58:43.992Z,101940.77
2019-04-10T20:01:12.763Z,101942.87
2019-04-10T20:03:41.212Z,101947.18
2019-04-10T20:06:09.719Z,101947.18
2019-04-10T20:08:38.475Z,101954.70
2019-04-10T20:11:06.989Z,101950.70
2019-04-10T20:13:35.562Z,101950.70
2019-04-10T20:16:04.076Z,101958.27
2019-04-10T20:18:32.815Z,101958.27
2019-04-10T20:21:01.835Z,101960.58
2019-04-10T20:23:30.478Z,101963.73
2019-04-10T20:25:58.894Z,101966.73
2019-04-10T20:28:27.315Z,101966.73
2019-04-10T20:30:56.737Z,101961.70
2019-04-10T20:33:26.998Z,101966.34
2019-04-10T20:35:56.392Z,101973.84
2019-04-10T20:38:25.222Z,101972.67
2019-04-10T20:40:54.094Z,101981.03
2019-04-10T20:43:22.825Z,101981.03
2019-04-10T20:45:51.363Z,101985.77
2019-04-10T20:48:20.343Z,101990.05
2019-04-10T20:50:50.202Z,101987.69
2019-04-10T20:53:19.912Z,101987.69
2019-04-10T20:55:48.404Z,101993.05
2019-04-10T20:58:17.682Z,101995.09
2019-04-10T21:00:47.147Z,102000.17
2019-04-10T21:03:15.597Z,102000.17
2019-04-10T21:05:44.577Z,102006.31
2019-04-10T21:08:13.727Z,102006.31
2019-04-10T21:10:42.918Z,102009.81
2019-04-10T21:13:11.474Z,102011.58
2019-04-10T21:15:40.111Z,102020.50
2019-04-10T21:18:08.565Z,102020.50
2019-04-10T21:20:37.001Z,102023.42
2019-04-10T21:23:05.607Z,102029.07
2019-04-10T21:25:35.087Z,102031.92
2019-04-10T21:28:04.711Z,102033.05
2019-04-10T21:30:51.139Z,102025.22
2019-04-10T21:33:36.770Z,102039.69
2019-04-10T21:36:05.271Z,102048.89
2019-04-10T21:38:33.679Z,102046.97
2019-04-10T21:41:02.562Z,102054.27
2019-04-10T21:43:31.917Z,102052.39
2019-04-10T21:46:00.546Z,102059.36
2019-04-10T21:48:28.921Z,102057.88
2019-04-10T21:50:58.190Z,102057.88
2019-04-10T21:53:26.661Z,102070.20
2019-04-10T21:55:55.751Z,102070.20
2019-04-10T21:58:24.286Z,102061.38
2019-04-10T22:00:54.847Z,102068.73
2019-04-10T22:03:23.563Z,102068.73
2019-04-10T22:05:53.710Z,102067.11
2019-04-10T22:08:29.568Z,102071.29
2019-04-10T22:10:58.840Z,102071.29
2019-04-10T22:13:28.124Z,102068.92
2019-04-10T22:15:57.512Z,102067.15
2019-04-10T22:18:26.010Z,102066.42
2019-04-10T22:20:54.436Z,102071.09
2019-04-10T22:23:22.847Z,102074.11
2019-04-10T22:25:52.230Z,102074.11
2019-04-10T22:28:21.128Z,102079.41
2019-04-10T22:30:50.591Z,102083.61
2019-04-10T22:33:20.174Z,102086.86
2019-04-10T22:35:48.753Z,102083.56
2019-04-10T22:38:17.433Z,102092.03
2019-04-10T22:40:46.266Z,102092.03
2019-04-10T22:43:15.819Z,102086.03
2019-04-10T22:45:44.513Z,102087.86
2019-04-10T22:48:12.947Z,102088.94
2019-04-10T22:50:41.344Z,102100.30
2019-04-10T22:53:09.852Z,102100.30
2019-04-10T22:55:38.261Z,102097.45
2019-04-10T22:58:06.779Z,102097.19
2019-04-10T23:00:35.180Z,102097.19
2019-04-10T23:03:03.614Z,102102.66
2019-04-10T23:05:32.443Z,102108.59
2019-04-10T23:08:01.204Z,102105.53
2019-04-10T23:10:29.852Z,102105.22
2019-04-10T23:13:02.913Z,102106.74
2019-04-10T23:15:28.703Z,102105.97
2019-04-10T23:17:57.347Z,102103.94
2019-04-10T23:20:26.024Z,102106.39
2019-04-10T23:22:54.791Z,102105.49
2019-04-10T23:25:24.578Z,102111.37
2019-04-10T23:27:55.982Z,102113.58
2019-04-10T23:30:24.530Z,102107.34
2019-04-10T23:32:53.534Z,102110.30
2019-04-10T23:35:22.196Z,102107.61
2019-04-10T23:37:51.099Z,102111.73
2019-04-10T23:40:20.912Z,102114.95
2019-04-10T23:43:01.220Z,102113.61
2019-04-10T23:45:19.777Z,102112.05
2019-04-10T23:47:48.681Z,102112.05
2019-04-10T23:50:18.457Z,102115.27
2019-04-10T23:52:47.892Z,102116.03
2019-04-10T23:55:17.682Z,102110.97
2019-04-10T23:57:46.432Z,102107.82
